sensor_id;sensor_type;location;lat;lon;timestamp;P1;durP1;ratioP1;P2;durP2;ratioP2
15573;SDS011;7888;46.748;8.102;2023-08-31T00:00:45;0.87;;;0.60;;
15573;SDS011;7888;46.748;8.102;2023-08-31T00:03:11;0.50;;;0.50;;
15573;SDS011;7888;46.748;8.102;2023-08-31T00:05:40;1.47;;;0.63;;
15573;SDS011;7888;46.748;8.102;2023-08-31T00:08:07;0.60;;;0.50;;
15573;SDS011;7888;46.748;8.102;2023-08-31T00:10:34;0.87;;;0.60;;
15573;SDS011;7888;46.748;8.102;2023-08-31T00:13:01;0.70;;;0.70;;
15573;SDS011;7888;46.748;8.102;2023-08-31T00:15:28;0.80;;;0.80;;
15573;SDS011;7888;46.748;8.102;2023-08-31T00:17:54;0.60;;;0.60;;
15573;SDS011;7888;46.748;8.102;2023-08-31T00:20:20;1.07;;;0.60;;
15573;SDS011;7888;46.748;8.102;2023-08-31T00:22:46;1.27;;;0.60;;
15573;SDS011;7888;46.748;8.102;2023-08-31T00:25:13;0.70;;;0.67;;
15573;SDS011;7888;46.748;8.102;2023-08-31T00:27:39;0.50;;;0.50;;
15573;SDS011;7888;46.748;8.102;2023-08-31T00:30:06;0.97;;;0.70;;
15573;SDS011;7888;46.748;8.102;2023-08-31T00:32:33;1.07;;;0.60;;
15573;SDS011;7888;46.748;8.102;2023-08-31T00:35:00;0.73;;;0.60;;
15573;SDS011;7888;46.748;8.102;2023-08-31T00:37:26;0.67;;;0.67;;
15573;SDS011;7888;46.748;8.102;2023-08-31T00:39:51;0.63;;;0.63;;
15573;SDS011;7888;46.748;8.102;2023-08-31T00:42:18;2.03;;;0.70;;
15573;SDS011;7888;46.748;8.102;2023-08-31T00:44:44;0.60;;;0.60;;
15573;SDS011;7888;46.748;8.102;2023-08-31T00:47:13;0.83;;;0.70;;
15573;SDS011;7888;46.748;8.102;2023-08-31T00:49:40;1.90;;;0.90;;
15573;SDS011;7888;46.748;8.102;2023-08-31T00:52:06;0.60;;;0.60;;
15573;SDS011;7888;46.748;8.102;2023-08-31T00:54:32;0.60;;;0.60;;
15573;SDS011;7888;46.748;8.102;2023-08-31T00:57:00;1.00;;;0.70;;
15573;SDS011;7888;46.748;8.102;2023-08-31T00:59:26;0.60;;;0.60;;
15573;SDS011;7888;46.748;8.102;2023-08-31T01:02:03;0.50;;;0.47;;
15573;SDS011;7888;46.748;8.102;2023-08-31T01:11:08;0.83;;;0.50;;
15573;SDS011;7888;46.748;8.102;2023-08-31T01:13:38;0.57;;;0.50;;
15573;SDS011;7888;46.748;8.102;2023-08-31T01:16:09;0.90;;;0.63;;
15573;SDS011;7888;46.748;8.102;2023-08-31T01:18:38;0.57;;;0.57;;
15573;SDS011;7888;46.748;8.102;2023-08-31T01:23:53;0.50;;;0.50;;
15573;SDS011;7888;46.748;8.102;2023-08-31T01:26:22;1.00;;;0.90;;
15573;SDS011;7888;46.748;8.102;2023-08-31T01:28:50;0.90;;;0.60;;
15573;SDS011;7888;46.748;8.102;2023-08-31T01:31:17;0.77;;;0.77;;
15573;SDS011;7888;46.748;8.102;2023-08-31T01:33:43;0.77;;;0.70;;
15573;SDS011;7888;46.748;8.102;2023-08-31T01:36:13;1.60;;;0.60;;
15573;SDS011;7888;46.748;8.102;2023-08-31T01:42:08;0.70;;;0.70;;
15573;SDS011;7888;46.748;8.102;2023-08-31T01:44:38;0.73;;;0.67;;
15573;SDS011;7888;46.748;8.102;2023-08-31T01:47:05;0.50;;;0.50;;
15573;SDS011;7888;46.748;8.102;2023-08-31T01:49:40;0.70;;;0.70;;
15573;SDS011;7888;46.748;8.102;2023-08-31T01:52:08;3.00;;;0.70;;
15573;SDS011;7888;46.748;8.102;2023-08-31T01:54:34;1.30;;;0.90;;
15573;SDS011;7888;46.748;8.102;2023-08-31T01:57:02;0.90;;;0.80;;
15573;SDS011;7888;46.748;8.102;2023-08-31T01:59:29;1.00;;;0.60;;
15573;SDS011;7888;46.748;8.102;2023-08-31T02:01:55;0.90;;;0.80;;
15573;SDS011;7888;46.748;8.102;2023-08-31T02:04:20;0.90;;;0.70;;
15573;SDS011;7888;46.748;8.102;2023-08-31T02:06:46;1.80;;;0.70;;
15573;SDS011;7888;46.748;8.102;2023-08-31T02:09:13;0.97;;;0.80;;
15573;SDS011;7888;46.748;8.102;2023-08-31T02:11:39;1.10;;;0.70;;
15573;SDS011;7888;46.748;8.102;2023-08-31T02:14:05;0.80;;;0.70;;
15573;SDS011;7888;46.748;8.102;2023-08-31T02:16:31;0.80;;;0.80;;
15573;SDS011;7888;46.748;8.102;2023-08-31T02:18:58;0.70;;;0.70;;
15573;SDS011;7888;46.748;8.102;2023-08-31T02:21:24;1.73;;;0.80;;
15573;SDS011;7888;46.748;8.102;2023-08-31T02:23:49;1.57;;;1.00;;
15573;SDS011;7888;46.748;8.102;2023-08-31T02:26:15;2.50;;;0.97;;
15573;SDS011;7888;46.748;8.102;2023-08-31T02:28:41;1.10;;;0.90;;
15573;SDS011;7888;46.748;8.102;2023-08-31T02:31:07;1.30;;;0.90;;
15573;SDS011;7888;46.748;8.102;2023-08-31T02:33:35;1.23;;;0.80;;
15573;SDS011;7888;46.748;8.102;2023-08-31T02:36:01;1.00;;;0.70;;
15573;SDS011;7888;46.748;8.102;2023-08-31T02:38:27;3.10;;;0.80;;
15573;SDS011;7888;46.748;8.102;2023-08-31T02:40:53;1.77;;;0.77;;
15573;SDS011;7888;46.748;8.102;2023-08-31T02:43:18;0.97;;;0.70;;
15573;SDS011;7888;46.748;8.102;2023-08-31T02:45:44;0.80;;;0.80;;
15573;SDS011;7888;46.748;8.102;2023-08-31T02:48:10;1.50;;;0.80;;
15573;SDS011;7888;46.748;8.102;2023-08-31T02:50:36;1.00;;;0.87;;
15573;SDS011;7888;46.748;8.102;2023-08-31T02:53:03;0.93;;;0.87;;
15573;SDS011;7888;46.748;8.102;2023-08-31T02:55:31;0.80;;;0.80;;
15573;SDS011;7888;46.748;8.102;2023-08-31T02:57:58;0.77;;;0.77;;
15573;SDS011;7888;46.748;8.102;2023-08-31T03:00:24;0.77;;;0.77;;
15573;SDS011;7888;46.748;8.102;2023-08-31T03:02:50;1.00;;;0.83;;
15573;SDS011;7888;46.748;8.102;2023-08-31T03:05:17;0.80;;;0.80;;
15573;SDS011;7888;46.748;8.102;2023-08-31T03:07:43;0.97;;;0.83;;
15573;SDS011;7888;46.748;8.102;2023-08-31T03:10:09;0.70;;;0.70;;
15573;SDS011;7888;46.748;8.102;2023-08-31T03:12:35;1.40;;;0.90;;
15573;SDS011;7888;46.748;8.102;2023-08-31T03:15:01;0.90;;;0.73;;
15573;SDS011;7888;46.748;8.102;2023-08-31T03:17:28;1.40;;;0.80;;
15573;SDS011;7888;46.748;8.102;2023-08-31T03:19:53;0.67;;;0.67;;
15573;SDS011;7888;46.748;8.102;2023-08-31T03:22:19;0.60;;;0.60;;
15573;SDS011;7888;46.748;8.102;2023-08-31T03:24:44;1.40;;;0.80;;
15573;SDS011;7888;46.748;8.102;2023-08-31T03:27:10;0.80;;;0.80;;
15573;SDS011;7888;46.748;8.102;2023-08-31T03:29:36;1.53;;;0.80;;
15573;SDS011;7888;46.748;8.102;2023-08-31T03:32:02;0.93;;;0.80;;
15573;SDS011;7888;46.748;8.102;2023-08-31T03:34:28;0.80;;;0.80;;
15573;SDS011;7888;46.748;8.102;2023-08-31T03:36:55;1.97;;;0.80;;
15573;SDS011;7888;46.748;8.102;2023-08-31T03:39:23;1.53;;;0.70;;
15573;SDS011;7888;46.748;8.102;2023-08-31T03:41:49;0.87;;;0.80;;
15573;SDS011;7888;46.748;8.102;2023-08-31T03:44:15;1.00;;;1.00;;
15573;SDS011;7888;46.748;8.102;2023-08-31T03:46:41;1.80;;;1.00;;
15573;SDS011;7888;46.748;8.102;2023-08-31T03:49:08;0.83;;;0.83;;
15573;SDS011;7888;46.748;8.102;2023-08-31T03:51:34;0.80;;;0.80;;
15573;SDS011;7888;46.748;8.102;2023-08-31T03:54:00;0.97;;;0.80;;
15573;SDS011;7888;46.748;8.102;2023-08-31T03:56:26;0.90;;;0.90;;
15573;SDS011;7888;46.748;8.102;2023-08-31T03:58:52;0.87;;;0.80;;
15573;SDS011;7888;46.748;8.102;2023-08-31T04:01:19;1.00;;;0.90;;
15573;SDS011;7888;46.748;8.102;2023-08-31T04:03:44;1.80;;;0.83;;
15573;SDS011;7888;46.748;8.102;2023-08-31T04:06:10;1.30;;;0.80;;
15573;SDS011;7888;46.748;8.102;2023-08-31T04:08:36;1.27;;;0.93;;
15573;SDS011;7888;46.748;8.102;2023-08-31T04:11:02;1.17;;;0.83;;
15573;SDS011;7888;46.748;8.102;2023-08-31T04:13:28;0.87;;;0.83;;
15573;SDS011;7888;46.748;8.102;2023-08-31T04:15:54;1.43;;;0.80;;
15573;SDS011;7888;46.748;8.102;2023-08-31T04:18:20;1.33;;;0.90;;
15573;SDS011;7888;46.748;8.102;2023-08-31T04:20:50;0.73;;;0.73;;
15573;SDS011;7888;46.748;8.102;2023-08-31T04:23:18;1.03;;;0.93;;
15573;SDS011;7888;46.748;8.102;2023-08-31T04:25:46;1.87;;;1.27;;
15573;SDS011;7888;46.748;8.102;2023-08-31T04:28:13;0.93;;;0.80;;
15573;SDS011;7888;46.748;8.102;2023-08-31T04:30:39;0.70;;;0.70;;
15573;SDS011;7888;46.748;8.102;2023-08-31T04:33:06;2.23;;;1.10;;
15573;SDS011;7888;46.748;8.102;2023-08-31T04:35:32;1.33;;;0.83;;
15573;SDS011;7888;46.748;8.102;2023-08-31T04:37:59;1.37;;;1.00;;
15573;SDS011;7888;46.748;8.102;2023-08-31T04:40:25;1.20;;;1.10;;
15573;SDS011;7888;46.748;8.102;2023-08-31T04:42:54;1.17;;;1.07;;
15573;SDS011;7888;46.748;8.102;2023-08-31T04:45:20;1.60;;;1.30;;
15573;SDS011;7888;46.748;8.102;2023-08-31T04:47:46;1.20;;;1.10;;
15573;SDS011;7888;46.748;8.102;2023-08-31T04:50:11;2.93;;;1.07;;
15573;SDS011;7888;46.748;8.102;2023-08-31T04:52:37;1.10;;;0.83;;
15573;SDS011;7888;46.748;8.102;2023-08-31T04:55:05;4.40;;;1.20;;
15573;SDS011;7888;46.748;8.102;2023-08-31T04:57:36;1.23;;;0.77;;
15573;SDS011;7888;46.748;8.102;2023-08-31T05:00:02;2.83;;;1.00;;
15573;SDS011;7888;46.748;8.102;2023-08-31T05:02:29;1.23;;;0.97;;
15573;SDS011;7888;46.748;8.102;2023-08-31T05:04:55;2.67;;;1.17;;
15573;SDS011;7888;46.748;8.102;2023-08-31T05:07:21;1.23;;;0.90;;
15573;SDS011;7888;46.748;8.102;2023-08-31T05:09:47;1.00;;;1.00;;
15573;SDS011;7888;46.748;8.102;2023-08-31T05:12:12;1.37;;;1.00;;
15573;SDS011;7888;46.748;8.102;2023-08-31T05:14:38;2.03;;;1.10;;
15573;SDS011;7888;46.748;8.102;2023-08-31T05:17:04;1.00;;;0.90;;
15573;SDS011;7888;46.748;8.102;2023-08-31T05:19:31;1.67;;;1.13;;
15573;SDS011;7888;46.748;8.102;2023-08-31T05:21:57;1.40;;;1.10;;
15573;SDS011;7888;46.748;8.102;2023-08-31T05:24:22;1.20;;;1.10;;
15573;SDS011;7888;46.748;8.102;2023-08-31T05:26:49;1.20;;;1.10;;
15573;SDS011;7888;46.748;8.102;2023-08-31T05:29:15;1.77;;;0.97;;
15573;SDS011;7888;46.748;8.102;2023-08-31T05:31:41;1.03;;;0.97;;
15573;SDS011;7888;46.748;8.102;2023-08-31T05:34:08;1.70;;;1.03;;
15573;SDS011;7888;46.748;8.102;2023-08-31T05:36:35;1.60;;;1.03;;
15573;SDS011;7888;46.748;8.102;2023-08-31T05:39:02;1.73;;;1.23;;
15573;SDS011;7888;46.748;8.102;2023-08-31T05:41:28;2.23;;;1.70;;
15573;SDS011;7888;46.748;8.102;2023-08-31T05:43:54;2.33;;;2.07;;
15573;SDS011;7888;46.748;8.102;2023-08-31T05:46:19;2.30;;;1.87;;
15573;SDS011;7888;46.748;8.102;2023-08-31T05:48:45;2.73;;;1.97;;
15573;SDS011;7888;46.748;8.102;2023-08-31T05:51:11;2.97;;;2.03;;
15573;SDS011;7888;46.748;8.102;2023-08-31T05:53:36;2.30;;;1.80;;
15573;SDS011;7888;46.748;8.102;2023-08-31T05:56:02;4.03;;;1.50;;
15573;SDS011;7888;46.748;8.102;2023-08-31T05:58:32;2.53;;;1.63;;
15573;SDS011;7888;46.748;8.102;2023-08-31T06:01:00;2.43;;;1.40;;
15573;SDS011;7888;46.748;8.102;2023-08-31T06:03:27;2.00;;;1.80;;
15573;SDS011;7888;46.748;8.102;2023-08-31T06:05:54;1.77;;;1.47;;
15573;SDS011;7888;46.748;8.102;2023-08-31T06:08:21;1.33;;;1.23;;
15573;SDS011;7888;46.748;8.102;2023-08-31T06:10:47;2.17;;;1.40;;
15573;SDS011;7888;46.748;8.102;2023-08-31T06:13:13;2.80;;;2.13;;
15573;SDS011;7888;46.748;8.102;2023-08-31T06:15:39;1.63;;;1.50;;
15573;SDS011;7888;46.748;8.102;2023-08-31T06:18:05;2.43;;;1.40;;
15573;SDS011;7888;46.748;8.102;2023-08-31T06:20:32;1.50;;;1.40;;
15573;SDS011;7888;46.748;8.102;2023-08-31T06:22:58;1.50;;;1.40;;
15573;SDS011;7888;46.748;8.102;2023-08-31T06:25:25;1.40;;;1.30;;
15573;SDS011;7888;46.748;8.102;2023-08-31T06:27:50;3.77;;;1.30;;
15573;SDS011;7888;46.748;8.102;2023-08-31T06:30:16;1.57;;;1.47;;
15573;SDS011;7888;46.748;8.102;2023-08-31T06:32:43;1.70;;;1.43;;
15573;SDS011;7888;46.748;8.102;2023-08-31T06:35:11;1.30;;;1.20;;
15573;SDS011;7888;46.748;8.102;2023-08-31T06:37:39;1.13;;;1.03;;
15573;SDS011;7888;46.748;8.102;2023-08-31T06:40:08;1.20;;;1.10;;
15573;SDS011;7888;46.748;8.102;2023-08-31T06:42:35;1.60;;;1.17;;
15573;SDS011;7888;46.748;8.102;2023-08-31T06:45:05;1.53;;;1.20;;
15573;SDS011;7888;46.748;8.102;2023-08-31T06:47:33;1.63;;;1.10;;
15573;SDS011;7888;46.748;8.102;2023-08-31T06:49:59;2.03;;;1.20;;
15573;SDS011;7888;46.748;8.102;2023-08-31T06:52:26;2.33;;;1.30;;
15573;SDS011;7888;46.748;8.102;2023-08-31T06:54:52;3.27;;;1.20;;
15573;SDS011;7888;46.748;8.102;2023-08-31T06:57:25;1.40;;;1.20;;
15573;SDS011;7888;46.748;8.102;2023-08-31T06:59:52;1.00;;;0.90;;
15573;SDS011;7888;46.748;8.102;2023-08-31T07:02:19;3.10;;;1.30;;
15573;SDS011;7888;46.748;8.102;2023-08-31T07:04:47;3.17;;;1.40;;
15573;SDS011;7888;46.748;8.102;2023-08-31T07:07:13;1.30;;;1.20;;
15573;SDS011;7888;46.748;8.102;2023-08-31T07:09:41;2.70;;;1.27;;
15573;SDS011;7888;46.748;8.102;2023-08-31T07:12:09;2.30;;;1.27;;
15573;SDS011;7888;46.748;8.102;2023-08-31T07:14:35;2.83;;;1.13;;
15573;SDS011;7888;46.748;8.102;2023-08-31T07:17:01;1.47;;;1.23;;
15573;SDS011;7888;46.748;8.102;2023-08-31T07:19:26;2.50;;;1.10;;
15573;SDS011;7888;46.748;8.102;2023-08-31T07:21:52;1.83;;;1.40;;
15573;SDS011;7888;46.748;8.102;2023-08-31T07:24:22;1.60;;;1.20;;
15573;SDS011;7888;46.748;8.102;2023-08-31T07:26:49;3.07;;;1.50;;
15573;SDS011;7888;46.748;8.102;2023-08-31T07:29:15;2.47;;;1.37;;
15573;SDS011;7888;46.748;8.102;2023-08-31T07:31:41;1.40;;;1.10;;
15573;SDS011;7888;46.748;8.102;2023-08-31T07:34:07;2.23;;;1.20;;
15573;SDS011;7888;46.748;8.102;2023-08-31T07:36:33;1.20;;;1.10;;
15573;SDS011;7888;46.748;8.102;2023-08-31T07:38:59;1.60;;;1.50;;
15573;SDS011;7888;46.748;8.102;2023-08-31T07:41:25;1.90;;;1.43;;
15573;SDS011;7888;46.748;8.102;2023-08-31T07:43:50;1.90;;;1.50;;
15573;SDS011;7888;46.748;8.102;2023-08-31T07:46:17;1.20;;;1.10;;
15573;SDS011;7888;46.748;8.102;2023-08-31T07:48:43;1.60;;;1.20;;
15573;SDS011;7888;46.748;8.102;2023-08-31T07:51:09;2.00;;;1.30;;
15573;SDS011;7888;46.748;8.102;2023-08-31T07:53:35;2.03;;;1.10;;
15573;SDS011;7888;46.748;8.102;2023-08-31T07:56:00;2.00;;;1.10;;
15573;SDS011;7888;46.748;8.102;2023-08-31T07:58:26;2.03;;;1.20;;
15573;SDS011;7888;46.748;8.102;2023-08-31T08:00:52;1.63;;;1.10;;
15573;SDS011;7888;46.748;8.102;2023-08-31T08:03:20;1.20;;;1.10;;
15573;SDS011;7888;46.748;8.102;2023-08-31T08:05:47;3.37;;;1.13;;
15573;SDS011;7888;46.748;8.102;2023-08-31T08:08:13;1.40;;;1.30;;
15573;SDS011;7888;46.748;8.102;2023-08-31T08:10:39;2.67;;;1.20;;
15573;SDS011;7888;46.748;8.102;2023-08-31T08:13:05;1.17;;;1.07;;
15573;SDS011;7888;46.748;8.102;2023-08-31T08:15:31;1.10;;;1.00;;
15573;SDS011;7888;46.748;8.102;2023-08-31T08:17:57;1.77;;;1.40;;
15573;SDS011;7888;46.748;8.102;2023-08-31T08:20:23;1.50;;;1.20;;
15573;SDS011;7888;46.748;8.102;2023-08-31T08:22:49;1.97;;;1.20;;
15573;SDS011;7888;46.748;8.102;2023-08-31T08:25:18;1.57;;;1.43;;
15573;SDS011;7888;46.748;8.102;2023-08-31T08:27:45;1.20;;;1.10;;
15573;SDS011;7888;46.748;8.102;2023-08-31T08:30:12;1.70;;;1.20;;
15573;SDS011;7888;46.748;8.102;2023-08-31T08:32:38;1.40;;;1.30;;
15573;SDS011;7888;46.748;8.102;2023-08-31T08:35:04;2.40;;;1.30;;
15573;SDS011;7888;46.748;8.102;2023-08-31T08:37:30;2.00;;;1.40;;
15573;SDS011;7888;46.748;8.102;2023-08-31T08:39:59;1.60;;;1.20;;
15573;SDS011;7888;46.748;8.102;2023-08-31T08:42:26;1.10;;;1.10;;
15573;SDS011;7888;46.748;8.102;2023-08-31T08:44:56;1.30;;;1.20;;
15573;SDS011;7888;46.748;8.102;2023-08-31T08:47:22;1.53;;;1.20;;
15573;SDS011;7888;46.748;8.102;2023-08-31T08:49:51;3.37;;;1.90;;
15573;SDS011;7888;46.748;8.102;2023-08-31T08:52:20;1.30;;;1.20;;
15573;SDS011;7888;46.748;8.102;2023-08-31T08:54:47;2.23;;;1.37;;
15573;SDS011;7888;46.748;8.102;2023-08-31T08:57:15;1.10;;;1.00;;
15573;SDS011;7888;46.748;8.102;2023-08-31T08:59:41;1.40;;;1.30;;
15573;SDS011;7888;46.748;8.102;2023-08-31T09:02:08;2.27;;;1.10;;
15573;SDS011;7888;46.748;8.102;2023-08-31T09:04:37;1.50;;;1.40;;
15573;SDS011;7888;46.748;8.102;2023-08-31T09:07:03;1.40;;;1.27;;
15573;SDS011;7888;46.748;8.102;2023-08-31T09:09:28;1.20;;;1.10;;
15573;SDS011;7888;46.748;8.102;2023-08-31T09:11:54;3.10;;;1.47;;
15573;SDS011;7888;46.748;8.102;2023-08-31T09:14:23;1.73;;;1.40;;
15573;SDS011;7888;46.748;8.102;2023-08-31T09:16:49;1.40;;;1.30;;
15573;SDS011;7888;46.748;8.102;2023-08-31T09:19:20;1.77;;;1.25;;
15573;SDS011;7888;46.748;8.102;2023-08-31T09:21:55;1.50;;;1.40;;
15573;SDS011;7888;46.748;8.102;2023-08-31T09:24:22;1.23;;;1.00;;
15573;SDS011;7888;46.748;8.102;2023-08-31T09:26:55;1.20;;;1.10;;
15573;SDS011;7888;46.748;8.102;2023-08-31T09:29:23;1.48;;;0.98;;
15573;SDS011;7888;46.748;8.102;2023-08-31T09:31:49;1.70;;;1.10;;
15573;SDS011;7888;46.748;8.102;2023-08-31T09:34:16;1.20;;;1.10;;
15573;SDS011;7888;46.748;8.102;2023-08-31T09:36:43;1.02;;;0.93;;
15573;SDS011;7888;46.748;8.102;2023-08-31T09:39:10;2.90;;;1.00;;
15573;SDS011;7888;46.748;8.102;2023-08-31T09:41:57;2.47;;;0.90;;
15573;SDS011;7888;46.748;8.102;2023-08-31T09:44:24;1.50;;;1.10;;
15573;SDS011;7888;46.748;8.102;2023-08-31T09:46:50;1.13;;;1.02;;
15573;SDS011;7888;46.748;8.102;2023-08-31T09:49:17;1.20;;;1.00;;
15573;SDS011;7888;46.748;8.102;2023-08-31T09:51:46;0.98;;;0.80;;
15573;SDS011;7888;46.748;8.102;2023-08-31T09:54:15;0.95;;;0.93;;
15573;SDS011;7888;46.748;8.102;2023-08-31T09:56:44;1.02;;;0.98;;
15573;SDS011;7888;46.748;8.102;2023-08-31T09:59:12;1.10;;;0.85;;
15573;SDS011;7888;46.748;8.102;2023-08-31T10:01:40;1.25;;;1.15;;
15573;SDS011;7888;46.748;8.102;2023-08-31T10:04:09;1.83;;;1.10;;
15573;SDS011;7888;46.748;8.102;2023-08-31T10:06:36;1.38;;;1.25;;
15573;SDS011;7888;46.748;8.102;2023-08-31T10:09:07;1.20;;;1.13;;
15573;SDS011;7888;46.748;8.102;2023-08-31T10:11:38;1.20;;;1.10;;
15573;SDS011;7888;46.748;8.102;2023-08-31T10:14:05;1.23;;;1.13;;
15573;SDS011;7888;46.748;8.102;2023-08-31T10:16:32;1.52;;;1.40;;
15573;SDS011;7888;46.748;8.102;2023-08-31T10:18:57;1.35;;;1.10;;
15573;SDS011;7888;46.748;8.102;2023-08-31T10:21:24;1.30;;;1.17;;
15573;SDS011;7888;46.748;8.102;2023-08-31T10:23:50;1.25;;;1.10;;
15573;SDS011;7888;46.748;8.102;2023-08-31T10:26:26;1.63;;;1.27;;
15573;SDS011;7888;46.748;8.102;2023-08-31T10:28:54;1.20;;;1.10;;
15573;SDS011;7888;46.748;8.102;2023-08-31T10:31:22;2.30;;;1.50;;
15573;SDS011;7888;46.748;8.102;2023-08-31T10:36:34;1.55;;;1.33;;
15573;SDS011;7888;46.748;8.102;2023-08-31T10:39:20;1.70;;;1.10;;
15573;SDS011;7888;46.748;8.102;2023-08-31T10:41:55;1.67;;;1.25;;
15573;SDS011;7888;46.748;8.102;2023-08-31T10:44:26;1.40;;;1.30;;
15573;SDS011;7888;46.748;8.102;2023-08-31T10:46:55;1.45;;;1.35;;
15573;SDS011;7888;46.748;8.102;2023-08-31T10:49:24;1.25;;;1.15;;
15573;SDS011;7888;46.748;8.102;2023-08-31T11:07:42;2.03;;;1.40;;
15573;SDS011;7888;46.748;8.102;2023-08-31T11:10:13;1.70;;;1.58;;
15573;SDS011;7888;46.748;8.102;2023-08-31T11:12:48;2.08;;;1.88;;
15573;SDS011;7888;46.748;8.102;2023-08-31T11:15:18;1.50;;;1.40;;
15573;SDS011;7888;46.748;8.102;2023-08-31T11:17:47;2.92;;;1.40;;
15573;SDS011;7888;46.748;8.102;2023-08-31T11:20:18;1.73;;;1.58;;
15573;SDS011;7888;46.748;8.102;2023-08-31T11:22:47;3.25;;;1.65;;
15573;SDS011;7888;46.748;8.102;2023-08-31T11:25:15;1.98;;;1.52;;
15573;SDS011;7888;46.748;8.102;2023-08-31T11:27:42;2.70;;;1.80;;
15573;SDS011;7888;46.748;8.102;2023-08-31T11:30:22;2.38;;;1.50;;
15573;SDS011;7888;46.748;8.102;2023-08-31T11:32:49;1.63;;;1.52;;
15573;SDS011;7888;46.748;8.102;2023-08-31T11:35:16;1.90;;;1.73;;
15573;SDS011;7888;46.748;8.102;2023-08-31T11:37:51;1.60;;;1.50;;
15573;SDS011;7888;46.748;8.102;2023-08-31T11:40:21;1.42;;;1.33;;
15573;SDS011;7888;46.748;8.102;2023-08-31T11:42:48;2.08;;;1.50;;
15573;SDS011;7888;46.748;8.102;2023-08-31T11:45:15;1.40;;;1.30;;
15573;SDS011;7888;46.748;8.102;2023-08-31T11:47:41;1.80;;;1.70;;
15573;SDS011;7888;46.748;8.102;2023-08-31T11:50:09;1.77;;;1.63;;
15573;SDS011;7888;46.748;8.102;2023-08-31T11:52:38;1.77;;;1.50;;
15573;SDS011;7888;46.748;8.102;2023-08-31T11:55:10;1.85;;;1.63;;
15573;SDS011;7888;46.748;8.102;2023-08-31T11:57:48;1.63;;;1.52;;
15573;SDS011;7888;46.748;8.102;2023-08-31T12:00:22;1.95;;;1.65;;
15573;SDS011;7888;46.748;8.102;2023-08-31T12:02:58;2.53;;;1.42;;
15573;SDS011;7888;46.748;8.102;2023-08-31T12:05:28;1.70;;;1.60;;
15573;SDS011;7888;46.748;8.102;2023-08-31T12:07:56;3.67;;;1.40;;
15573;SDS011;7888;46.748;8.102;2023-08-31T12:10:25;1.40;;;1.30;;
15573;SDS011;7888;46.748;8.102;2023-08-31T12:12:51;1.65;;;1.55;;
15573;SDS011;7888;46.748;8.102;2023-08-31T12:15:18;1.65;;;1.55;;
15573;SDS011;7888;46.748;8.102;2023-08-31T12:17:47;1.65;;;1.55;;
15573;SDS011;7888;46.748;8.102;2023-08-31T12:20:19;2.10;;;1.50;;
15573;SDS011;7888;46.748;8.102;2023-08-31T12:22:51;1.50;;;1.40;;
15573;SDS011;7888;46.748;8.102;2023-08-31T12:25:23;2.47;;;1.50;;
15573;SDS011;7888;46.748;8.102;2023-08-31T12:27:49;1.73;;;1.55;;
15573;SDS011;7888;46.748;8.102;2023-08-31T12:30:15;2.65;;;1.50;;
15573;SDS011;7888;46.748;8.102;2023-08-31T12:32:40;1.85;;;1.75;;
15573;SDS011;7888;46.748;8.102;2023-08-31T12:35:06;2.00;;;1.80;;
15573;SDS011;7888;46.748;8.102;2023-08-31T12:37:34;2.35;;;1.73;;
15573;SDS011;7888;46.748;8.102;2023-08-31T12:40:00;1.85;;;1.70;;
15573;SDS011;7888;46.748;8.102;2023-08-31T12:42:31;2.13;;;1.55;;
15573;SDS011;7888;46.748;8.102;2023-08-31T12:44:56;2.08;;;1.45;;
15573;SDS011;7888;46.748;8.102;2023-08-31T12:47:22;2.17;;;1.55;;
15573;SDS011;7888;46.748;8.102;2023-08-31T12:49:49;4.07;;;1.88;;
15573;SDS011;7888;46.748;8.102;2023-08-31T12:52:14;3.00;;;1.70;;
15573;SDS011;7888;46.748;8.102;2023-08-31T12:54:40;2.30;;;1.55;;
15573;SDS011;7888;46.748;8.102;2023-08-31T12:57:06;1.75;;;1.60;;
15573;SDS011;7888;46.748;8.102;2023-08-31T12:59:32;1.40;;;1.25;;
15573;SDS011;7888;46.748;8.102;2023-08-31T13:01:58;2.83;;;1.50;;
15573;SDS011;7888;46.748;8.102;2023-08-31T13:04:23;1.48;;;1.38;;
15573;SDS011;7888;46.748;8.102;2023-08-31T13:06:49;2.10;;;1.50;;
15573;SDS011;7888;46.748;8.102;2023-08-31T13:09:15;1.33;;;1.23;;
15573;SDS011;7888;46.748;8.102;2023-08-31T13:11:41;2.22;;;1.40;;
15573;SDS011;7888;46.748;8.102;2023-08-31T13:14:06;1.50;;;1.35;;
15573;SDS011;7888;46.748;8.102;2023-08-31T13:16:32;1.40;;;1.30;;
15573;SDS011;7888;46.748;8.102;2023-08-31T13:19:01;1.55;;;1.40;;
15573;SDS011;7888;46.748;8.102;2023-08-31T13:21:27;1.63;;;1.35;;
15573;SDS011;7888;46.748;8.102;2023-08-31T13:23:53;1.63;;;1.33;;
15573;SDS011;7888;46.748;8.102;2023-08-31T13:26:19;2.53;;;1.65;;
15573;SDS011;7888;46.748;8.102;2023-08-31T13:28:44;1.38;;;1.17;;
15573;SDS011;7888;46.748;8.102;2023-08-31T13:31:10;2.92;;;1.52;;
15573;SDS011;7888;46.748;8.102;2023-08-31T13:33:36;1.70;;;1.60;;
15573;SDS011;7888;46.748;8.102;2023-08-31T13:36:02;3.55;;;1.60;;
15573;SDS011;7888;46.748;8.102;2023-08-31T13:38:28;2.55;;;1.70;;
15573;SDS011;7888;46.748;8.102;2023-08-31T13:40:55;1.85;;;1.75;;
15573;SDS011;7888;46.748;8.102;2023-08-31T13:43:22;1.60;;;1.25;;
15573;SDS011;7888;46.748;8.102;2023-08-31T13:45:49;1.42;;;1.10;;
15573;SDS011;7888;46.748;8.102;2023-08-31T13:48:14;2.80;;;1.40;;
15573;SDS011;7888;46.748;8.102;2023-08-31T13:50:40;1.50;;;1.35;;
15573;SDS011;7888;46.748;8.102;2023-08-31T13:53:06;2.47;;;1.77;;
15573;SDS011;7888;46.748;8.102;2023-08-31T13:55:32;1.95;;;1.83;;
15573;SDS011;7888;46.748;8.102;2023-08-31T13:58:06;1.42;;;1.33;;
15573;SDS011;7888;46.748;8.102;2023-08-31T14:00:35;1.30;;;1.20;;
15573;SDS011;7888;46.748;8.102;2023-08-31T14:03:01;1.60;;;1.50;;
15573;SDS011;7888;46.748;8.102;2023-08-31T14:05:30;1.27;;;1.17;;
15573;SDS011;7888;46.748;8.102;2023-08-31T14:07:57;2.67;;;1.52;;
15573;SDS011;7888;46.748;8.102;2023-08-31T14:10:26;2.30;;;1.50;;
15573;SDS011;7888;46.748;8.102;2023-08-31T14:12:52;1.70;;;1.48;;
15573;SDS011;7888;46.748;8.102;2023-08-31T14:15:18;1.48;;;1.38;;
15573;SDS011;7888;46.748;8.102;2023-08-31T14:17:44;1.98;;;1.60;;
15573;SDS011;7888;46.748;8.102;2023-08-31T14:20:10;1.92;;;1.33;;
15573;SDS011;7888;46.748;8.102;2023-08-31T14:22:36;1.48;;;1.38;;
15573;SDS011;7888;46.748;8.102;2023-08-31T14:25:07;1.33;;;1.15;;
15573;SDS011;7888;46.748;8.102;2023-08-31T14:27:37;1.10;;;1.05;;
15573;SDS011;7888;46.748;8.102;2023-08-31T14:30:04;1.95;;;1.23;;
15573;SDS011;7888;46.748;8.102;2023-08-31T14:32:31;1.65;;;1.55;;
15573;SDS011;7888;46.748;8.102;2023-08-31T14:34:57;1.38;;;1.27;;
15573;SDS011;7888;46.748;8.102;2023-08-31T14:37:23;1.48;;;1.38;;
15573;SDS011;7888;46.748;8.102;2023-08-31T14:39:49;3.42;;;1.08;;
15573;SDS011;7888;46.748;8.102;2023-08-31T14:42:16;2.47;;;1.30;;
15573;SDS011;7888;46.748;8.102;2023-08-31T14:44:44;2.03;;;1.45;;
15573;SDS011;7888;46.748;8.102;2023-08-31T14:47:10;1.95;;;1.30;;
15573;SDS011;7888;46.748;8.102;2023-08-31T14:49:38;2.92;;;1.50;;
15573;SDS011;7888;46.748;8.102;2023-08-31T14:52:05;1.30;;;1.20;;
15573;SDS011;7888;46.748;8.102;2023-08-31T14:54:32;1.40;;;1.30;;
15573;SDS011;7888;46.748;8.102;2023-08-31T14:56:58;1.85;;;1.30;;
15573;SDS011;7888;46.748;8.102;2023-08-31T14:59:25;1.17;;;1.08;;
15573;SDS011;7888;46.748;8.102;2023-08-31T15:01:51;1.55;;;1.45;;
15573;SDS011;7888;46.748;8.102;2023-08-31T15:04:17;2.05;;;1.40;;
15573;SDS011;7888;46.748;8.102;2023-08-31T15:06:42;1.48;;;1.38;;
15573;SDS011;7888;46.748;8.102;2023-08-31T15:09:09;2.10;;;1.25;;
15573;SDS011;7888;46.748;8.102;2023-08-31T15:11:35;2.88;;;1.50;;
15573;SDS011;7888;46.748;8.102;2023-08-31T15:14:01;1.88;;;1.55;;
15573;SDS011;7888;46.748;8.102;2023-08-31T15:16:28;2.03;;;1.17;;
15573;SDS011;7888;46.748;8.102;2023-08-31T15:18:56;1.40;;;1.30;;
15573;SDS011;7888;46.748;8.102;2023-08-31T15:21:22;1.85;;;1.50;;
15573;SDS011;7888;46.748;8.102;2023-08-31T15:23:48;2.50;;;1.30;;
15573;SDS011;7888;46.748;8.102;2023-08-31T15:26:14;1.67;;;1.20;;
15573;SDS011;7888;46.748;8.102;2023-08-31T15:28:42;1.60;;;1.50;;
15573;SDS011;7888;46.748;8.102;2023-08-31T15:31:11;2.72;;;1.48;;